createdAt,value
2023-01-18T00:08:44.756Z,1.99
2023-01-18T00:18:56.571Z,1.93
2023-01-18T00:29:01.081Z,1.86
2023-01-18T00:39:05.387Z,1.82
2023-01-18T00:49:09.343Z,1.77
2023-01-18T00:59:15.623Z,1.74
2023-01-18T01:09:31.190Z,1.70
2023-01-18T01:19:53.593Z,1.62
2023-01-18T01:30:14.094Z,1.63
2023-01-18T01:40:18.350Z,1.67
2023-01-18T01:50:33.562Z,1.70
2023-01-18T02:00:40.342Z,1.72
2023-01-18T02:11:03.191Z,1.75
2023-01-18T02:21:44.630Z,1.69
2023-01-18T02:32:02.169Z,1.76
2023-01-18T02:43:01.296Z,1.89
2023-01-18T02:53:05.361Z,1.93
2023-01-18T03:03:20.718Z,1.97
2023-01-18T03:13:50.839Z,2.08
2023-01-18T03:23:56.012Z,2.18
2023-01-18T03:34:22.808Z,2.18
2023-01-18T03:44:51.551Z,2.13
2023-01-18T03:55:58.909Z,1.98
2023-01-18T04:06:38.441Z,1.87
2023-01-18T04:16:56.069Z,1.97
2023-01-18T04:27:04.528Z,2.10
2023-01-18T04:37:12.118Z,2.20
2023-01-18T04:47:36.775Z,2.22
2023-01-18T04:58:12.916Z,2.17
2023-01-18T05:08:23.493Z,2.11
2023-01-18T05:18:53.984Z,2.09
2023-01-18T05:29:01.484Z,2.08
2023-01-18T05:39:18.461Z,2.12
2023-01-18T05:49:28.575Z,2.16
2023-01-18T05:59:55.326Z,2.20
2023-01-18T06:10:15.972Z,2.29
2023-01-18T06:20:42.213Z,2.13
2023-01-18T06:31:08.973Z,2.19
2023-01-18T06:41:13.419Z,2.25
2023-01-18T06:51:20.713Z,2.25
2023-01-18T07:01:55.099Z,2.29
2023-01-18T07:12:27.820Z,2.38
2023-01-18T07:22:34.841Z,2.46
2023-01-18T07:33:07.301Z,2.68
2023-01-18T07:43:45.088Z,2.73
2023-01-18T07:54:17.254Z,2.58
2023-01-18T08:04:50.235Z,2.53
2023-01-18T08:15:18.063Z,2.67
2023-01-18T08:25:51.659Z,2.79
2023-01-18T08:36:32.023Z,2.99
2023-01-18T08:46:49.679Z,3.06
2023-01-18T08:56:59.534Z,3.10
2023-01-18T09:07:09.334Z,3.03
2023-01-18T09:17:37.164Z,2.92
2023-01-18T09:27:46.912Z,2.94
2023-01-18T09:37:51.325Z,3.41
2023-01-18T09:48:05.272Z,3.88
2023-01-18T09:58:47.642Z,3.80
2023-01-18T10:09:07.479Z,3.66
2023-01-18T10:19:34.040Z,3.82
2023-01-18T10:29:54.946Z,3.94
2023-01-18T10:40:07.744Z,4.17
2023-01-18T10:50:18.254Z,4.47
2023-01-18T11:00:29.145Z,4.79
2023-01-18T11:10:36.374Z,5.00
2023-01-18T11:21:27.889Z,5.06
2023-01-18T11:31:50.703Z,4.97
2023-01-18T11:42:22.016Z,5.17
2023-01-18T11:52:49.580Z,5.56
2023-01-18T12:03:31.038Z,5.66
2023-01-18T12:14:13.025Z,5.67
2023-01-18T12:24:54.326Z,5.69
2023-01-18T12:35:24.205Z,5.66
2023-01-18T12:45:41.450Z,5.96
2023-01-18T12:55:52.344Z,6.30
2023-01-18T13:06:01.669Z,6.24
2023-01-18T13:16:39.802Z,6.15
2023-01-18T13:26:43.999Z,6.23
2023-01-18T13:36:48.069Z,6.19
2023-01-18T13:46:52.642Z,6.16
2023-01-18T13:57:32.720Z,6.09
2023-01-18T14:08:12.668Z,6.08
2023-01-18T14:18:53.721Z,6.10
2023-01-18T14:29:17.355Z,6.04
2023-01-18T14:39:33.076Z,5.85
2023-01-18T14:50:03.672Z,5.55
2023-01-18T15:00:18.791Z,5.22
2023-01-18T15:10:24.643Z,4.97
2023-01-18T15:20:29.188Z,4.71
2023-01-18T15:30:34.136Z,4.46
2023-01-18T15:41:04.862Z,4.14
2023-01-18T15:51:12.655Z,3.84
2023-01-18T16:01:24.646Z,3.57
2023-01-18T16:11:47.952Z,3.34
2023-01-18T16:21:59.330Z,3.19
2023-01-18T16:32:30.755Z,3.00
2023-01-18T16:43:13.889Z,2.84
2023-01-18T16:53:27.095Z,2.66
2023-01-18T17:03:36.873Z,2.59
2023-01-18T17:13:42.582Z,2.44
2023-01-18T17:23:59.862Z,2.34
2023-01-18T17:34:30.056Z,2.22
2023-01-18T17:44:58.539Z,2.09
2023-01-18T17:55:27.464Z,1.92
2023-01-18T18:06:03.096Z,1.84
2023-01-18T18:16:20.214Z,1.79
2023-01-18T18:26:47.290Z,1.83
2023-01-18T18:36:52.667Z,1.80
2023-01-18T18:46:58.470Z,1.71
2023-01-18T18:57:04.400Z,1.78
2023-01-18T19:07:15.166Z,1.81
2023-01-18T19:17:54.030Z,1.85
2023-01-18T19:28:55.994Z,1.83
2023-01-18T19:39:26.259Z,1.61
2023-01-18T19:49:42.049Z,1.37
2023-01-18T19:59:47.513Z,1.30
2023-01-18T20:10:15.031Z,1.14
2023-01-18T20:20:52.877Z,1.05
2023-01-18T20:31:00.134Z,0.98
2023-01-18T20:41:08.596Z,0.70
2023-01-18T20:51:14.915Z,0.44
2023-01-18T21:01:21.663Z,0.23
2023-01-18T21:12:07.441Z,0.20
2023-01-18T21:22:16.056Z,0.25
2023-01-18T21:33:13.651Z,0.34
2023-01-18T21:43:46.480Z,0.27
2023-01-18T21:54:36.779Z,0.34
2023-01-18T22:05:21.134Z,0.41
2023-01-18T22:16:30.437Z,0.51
2023-01-18T22:27:08.873Z,0.66
2023-01-18T22:38:38.313Z,0.60
2023-01-18T22:49:45.475Z,0.62
2023-01-18T23:00:42.129Z,0.66
2023-01-18T23:11:19.467Z,0.77
2023-01-18T23:22:24.629Z,0.89
2023-01-18T23:32:52.961Z,0.87
2023-01-18T23:43:48.605Z,0.93
2023-01-18T23:54:45.844Z,1.00
